Stephanie Dann — WCD9870 — position and weather

sailwx.info

Track history (hours):
 
Tides and Currents Weather Stations Pressure Air Temp Water Temp Dewpoint Dewpoint Depression Visibility Wind Speed Wind Dir Waves Ship Positions

Stephanie Dann

Owner: DANN TOWING CO, TAMPA, FL. More information available from US FCC via Universal Licensing System and Coast Guard Vessel Documentation Center.

Last reported at 2018-Feb-18 17:59 UTC. Time now 2018-Feb-18 18:26 UTC.
Position N 40°40' W 074°01'.

Length 28 m; draft 14 m.

Type: Towing. MMSI: 338871000.

Date/timePositionNaut miles runAvg speedWind from/ knotsBaromVisibWave heightAir tempDewpointWater temp
2018-Feb-18 17:59N 40°40' W 074°01'0 0.0
2018-Feb-18 17:29N 40°40' W 074°01'0 0.0
2018-Feb-18 16:59N 40°40' W 074°01'0 0.0
2018-Feb-18 16:29N 40°40' W 074°01'0 0.0
2018-Feb-18 15:59N 40°40' W 074°01'0 0.0
2018-Feb-18 15:29N 40°40' W 074°01'0 0.0
2018-Feb-18 14:59N 40°40' W 074°01'0 0.0
2018-Feb-18 14:29N 40°40' W 074°01'0 0.0
2018-Feb-18 13:59N 40°40' W 074°01'0 0.0
2018-Feb-18 13:29N 40°40' W 074°01'0 0.0
2018-Feb-18 12:59N 40°40' W 074°01'0 0.0
2018-Feb-18 12:29N 40°40' W 074°01'2 4.2
2018-Feb-18 11:59N 40°39' W 074°03'4 8.1
2018-Feb-18 11:29N 40°38' W 074°09'2 4.4
2018-Feb-18 10:58N 40°38' W 074°12'1 2.7
2018-Feb-18 10:30N 40°37' W 074°12'12 5.0
2018-Feb-18 08:06N 40°29' W 074°01'40 7.5
2018-Feb-18 02:45N 39°49' W 074°04'3 8.8
2018-Feb-18 02:23N 39°45' W 074°04'3 8.6
2018-Feb-18 01:59N 39°42' W 074°06'193 7.8
2018-Feb-17 01:21N 36°60' W 076°18'5 8.2
2018-Feb-17 00:46N 36°55' W 076°20'3 8.9
2018-Feb-17 00:24N 36°52' W 076°20'3 5.1
2018-Feb-16 23:49N 36°50' W 076°17'0 0.4
2018-Feb-16 23:29N 36°50' W 076°17'0 0.0
2018-Feb-16 22:11N 36°50' W 076°17'0 0.0
2018-Feb-16 21:59N 36°50' W 076°17'0 0.0
2018-Feb-16 21:29N 36°50' W 076°17'0 0.0
2018-Feb-16 20:59N 36°50' W 076°17'0 0.0
2018-Feb-16 20:27N 36°50' W 076°17'0 0.0
2018-Feb-16 09:47N 36°50' W 076°17'0 0.0
2018-Feb-16 09:11N 36°50' W 076°17'0 0.0
2018-Feb-16 08:47N 36°50' W 076°17'0 0.0
2018-Feb-16 07:35N 36°50' W 076°17'0 0.0
2018-Feb-16 06:59N 36°50' W 076°17'0 0.0
2018-Feb-16 06:29N 36°50' W 076°17'0 0.0
2018-Feb-16 03:53N 36°50' W 076°17'0 0.0
2018-Feb-16 03:29N 36°50' W 076°17'0 0.0
2018-Feb-16 02:59N 36°50' W 076°17'0 0.0
2018-Feb-16 02:11N 36°50' W 076°17'0 0.0
2018-Feb-16 01:53N 36°50' W 076°17'0 0.0
2018-Feb-16 01:29N 36°50' W 076°17'0 0.0
2018-Feb-16 00:53N 36°50' W 076°17'0 0.0
2018-Feb-15 23:11N 36°50' W 076°17'0 0.0
2018-Feb-15 22:59N 36°50' W 076°17'0 0.0
2018-Feb-15 21:41N 36°50' W 076°17'0 0.0
2018-Feb-15 21:23N 36°50' W 076°17'0 0.0
2018-Feb-15 20:50N 36°50' W 076°17'0 0.0
2018-Feb-15 12:17N 36°50' W 076°17'0 0.0
2018-Feb-15 11:59N 36°50' W 076°17'0 0.0
2018-Feb-15 11:29N 36°50' W 076°17'0 0.0
2018-Feb-15 10:53N 36°50' W 076°17'0 0.0
2018-Feb-15 10:11N 36°50' W 076°17'0 0.0
2018-Feb-15 09:47N 36°50' W 076°17'1 1.9
2018-Feb-15 09:30N 36°51' W 076°18'4 7.8
2018-Feb-15 09:00N 36°47' W 076°18'1 1.6
2018-Feb-15 08:30N 36°46' W 076°18'0 0.0
2018-Feb-15 08:00N 36°46' W 076°18'0 0.0
2018-Feb-15 07:30N 36°46' W 076°18'0 0.0
2018-Feb-15 07:00N 36°46' W 076°18'0 0.0
2018-Feb-15 06:30N 36°46' W 076°18'0 0.0
2018-Feb-15 06:00N 36°46' W 076°18'0 0.0
2018-Feb-15 05:30N 36°46' W 076°18'0 0.0
2018-Feb-15 05:00N 36°46' W 076°18'0 0.0
2018-Feb-15 04:30N 36°46' W 076°18'0 0.0
2018-Feb-15 04:00N 36°46' W 076°18'0 0.0
2018-Feb-15 03:30N 36°46' W 076°18'0 0.0
2018-Feb-15 03:00N 36°46' W 076°18'0 0.0
2018-Feb-15 02:30N 36°46' W 076°18'0 0.0
2018-Feb-15 02:00N 36°46' W 076°18'0 0.0
2018-Feb-15 01:30N 36°46' W 076°18'0 0.0
2018-Feb-15 01:00N 36°46' W 076°18'0 0.0
2018-Feb-15 00:30N 36°46' W 076°18'0 0.0
2018-Feb-15 00:00N 36°46' W 076°18'0 0.0
2018-Feb-14 23:30N 36°46' W 076°18'0 0.0
2018-Feb-14 23:00N 36°46' W 076°18'0 0.0
2018-Feb-14 22:30N 36°46' W 076°18'0 0.0
2018-Feb-14 22:00N 36°46' W 076°18'0 0.0
2018-Feb-14 21:30N 36°46' W 076°18'0 0.0
2018-Feb-14 21:00N 36°46' W 076°18'0 0.0
2018-Feb-14 20:30N 36°46' W 076°18'0 0.0
2018-Feb-14 20:00N 36°46' W 076°18'0 0.0
2018-Feb-14 19:30N 36°46' W 076°18'0 0.1
2018-Feb-14 18:57N 36°46' W 076°18'0 0.0
2018-Feb-14 18:27N 36°46' W 076°18'0 0.1
2018-Feb-14 17:59N 36°46' W 076°18'1 1.4
2018-Feb-14 17:27N 36°47' W 076°18'0 0.6
2018-Feb-14 17:00N 36°47' W 076°18'1 2.3
2018-Feb-14 16:30N 36°48' W 076°18'2 3.3
2018-Feb-14 16:00N 36°49' W 076°17'2 3.4
2018-Feb-14 15:30N 36°51' W 076°18'2 3.7
2018-Feb-14 14:59N 36°52' W 076°20'2 3.7
2018-Feb-14 14:28N 36°54' W 076°20'2 3.6
2018-Feb-14 13:57N 36°56' W 076°20'2 3.6
2018-Feb-14 13:27N 36°58' W 076°20'2 3.6
2018-Feb-14 12:57N 36°59' W 076°19'3 5.2
2018-Feb-14 12:26N 37°01' W 076°16'2 4.2
2018-Feb-14 11:56N 37°01' W 076°13'2 4.2
2018-Feb-14 11:29N 37°01' W 076°11'2 4.3
2018-Feb-14 10:59N 37°03' W 076°10'2 4.6
2018-Feb-14 10:28N 37°06' W 076°10'101 4.4
2018-Feb-13 11:35N 38°45' W 076°28'0 4.8
2018-Feb-13 11:31N 38°46' W 076°28'2 4.9
2018-Feb-13 11:00N 38°48' W 076°27'2 4.6
2018-Feb-13 10:30N 38°50' W 076°26'2 4.6
2018-Feb-13 10:00N 38°53' W 076°26'2 4.5
2018-Feb-13 09:30N 38°55' W 076°25'5 4.4
2018-Feb-13 08:26N 38°59' W 076°23'23 4.7
2018-Feb-13 03:33N 39°20' W 076°11'0 5.5
2018-Feb-13 03:30N 39°20' W 076°11'3 5.2
2018-Feb-13 03:00N 39°22' W 076°08'2 4.9
2018-Feb-13 02:30N 39°23' W 076°05'2 4.5
2018-Feb-13 02:00N 39°24' W 076°03'2 4.2
2018-Feb-13 01:30N 39°26' W 076°01'2 3.9
2018-Feb-13 01:00N 39°27' W 075°59'2 3.6
2018-Feb-13 00:30N 39°28' W 075°58'2 3.3
2018-Feb-13 00:00N 39°29' W 075°56'2 3.0
2018-Feb-12 23:30N 39°30' W 075°55'1 2.7
2018-Feb-12 22:59N 39°31' W 075°53'1 2.5
2018-Feb-12 22:29N 39°32' W 075°52'1 2.1
2018-Feb-12 21:59N 39°32' W 075°50'1 2.1
2018-Feb-12 21:29N 39°32' W 075°49'1 2.3
2018-Feb-12 20:59N 39°32' W 075°48'1 2.8
2018-Feb-12 20:30N 39°32' W 075°46'2 3.2
2018-Feb-12 20:01N 39°33' W 075°44'2 3.7
2018-Feb-12 19:30N 39°33' W 075°41'2 3.9
2018-Feb-12 19:00N 39°33' W 075°39'2 4.4
2018-Feb-12 18:30N 39°33' W 075°36'2 4.5
2018-Feb-12 18:01N 39°34' W 075°33'3 5.3
2018-Feb-12 17:30N 39°36' W 075°34'2 4.8
2018-Feb-12 17:00N 39°39' W 075°34'2 4.7
2018-Feb-12 16:30N 39°40' W 075°32'2 4.0
2018-Feb-12 16:00N 39°42' W 075°31'2 3.5
2018-Feb-12 15:30N 39°44' W 075°29'0 0.3
2018-Feb-12 15:00N 39°44' W 075°29'0 0.0
2018-Feb-12 14:30N 39°44' W 075°29'0 0.1
2018-Feb-12 13:59N 39°44' W 075°29'0 0.0
2018-Feb-12 13:29N 39°44' W 075°29'0 0.0
2018-Feb-12 12:59N 39°44' W 075°29'0 0.0
2018-Feb-12 12:29N 39°44' W 075°29'0 0.0
2018-Feb-12 11:59N 39°44' W 075°29'0 0.0
2018-Feb-12 11:29N 39°44' W 075°29'0 0.0
2018-Feb-12 10:59N 39°44' W 075°29'0 0.0
2018-Feb-12 10:29N 39°44' W 075°29'0 0.0
2018-Feb-12 09:59N 39°44' W 075°29'0 0.0
2018-Feb-12 09:29N 39°44' W 075°29'0 0.0
2018-Feb-12 08:59N 39°44' W 075°29'0 0.0
2018-Feb-12 08:29N 39°44' W 075°29'0 0.0
2018-Feb-12 07:59N 39°44' W 075°29'0 0.0
2018-Feb-12 07:29N 39°44' W 075°29'0 0.0
2018-Feb-12 06:59N 39°44' W 075°29'0 0.0
2018-Feb-12 06:29N 39°44' W 075°29'0 0.0
2018-Feb-12 05:59N 39°44' W 075°29'0 0.0
2018-Feb-12 05:29N 39°44' W 075°29'0 0.0
2018-Feb-12 04:59N 39°44' W 075°29'0 0.0
2018-Feb-12 04:29N 39°44' W 075°29'0 0.0
2018-Feb-12 03:59N 39°44' W 075°29'0 0.0
2018-Feb-12 03:29N 39°44' W 075°29'0 0.0
2018-Feb-12 02:59N 39°44' W 075°29'0 0.0
2018-Feb-12 02:26N 39°44' W 075°29'0 0.0
2018-Feb-12 01:59N 39°44' W 075°29'0 0.0
2018-Feb-12 01:29N 39°44' W 075°29'0 0.0
2018-Feb-12 00:59N 39°44' W 075°29'3 5.4
2018-Feb-12 00:30N 39°46' W 075°28'3 5.8
2018-Feb-12 00:00N 39°48' W 075°26'2 4.5
2018-Feb-11 23:30N 39°47' W 075°28'4 8.2
2018-Feb-11 23:00N 39°43' W 075°30'4 8.0
2018-Feb-11 22:31N 39°40' W 075°32'4 7.2
2018-Feb-11 22:00N 39°36' W 075°34'3 5.6
2018-Feb-11 21:30N 39°33' W 075°35'5 9.5
2018-Feb-11 21:00N 39°33' W 075°41'5 9.7
2018-Feb-11 20:30N 39°32' W 075°48'4 8.6
2018-Feb-11 20:00N 39°31' W 075°53'4 8.1
2018-Feb-11 19:30N 39°29' W 075°57'3 0.5
2018-Feb-11 14:20N 39°27' W 075°60'0 0.0
2018-Feb-11 13:56N 39°27' W 075°60'0 0.0
2018-Feb-11 12:02N 39°27' W 075°60'0 0.0
2018-Feb-11 11:50N 39°27' W 075°60'0 0.0
2018-Feb-11 11:29N 39°27' W 075°60'0 0.0
2018-Feb-11 10:53N 39°27' W 075°60'0 0.0
2018-Feb-11 10:29N 39°27' W 075°60'0 0.0
2018-Feb-11 09:59N 39°27' W 075°60'0 0.0
2018-Feb-11 09:29N 39°27' W 075°60'0 0.0
2018-Feb-11 08:59N 39°27' W 075°60'0 0.0
2018-Feb-11 08:29N 39°27' W 075°60'0 0.0
2018-Feb-11 07:59N 39°27' W 075°60'0 0.0
2018-Feb-11 07:26N 39°27' W 075°60'0 0.0
2018-Feb-11 06:59N 39°27' W 075°60'0 0.0
2018-Feb-11 00:50N 39°27' W 075°60'0 0.0
2018-Feb-11 00:29N 39°27' W 075°60'0 0.0
2018-Feb-10 23:50N 39°27' W 075°60'0 0.0
2018-Feb-10 23:29N 39°27' W 075°60'0 0.0
2018-Feb-10 22:59N 39°27' W 075°60'0 0.0
2018-Feb-10 22:26N 39°27' W 075°60'0 0.0
2018-Feb-10 21:41N 39°27' W 075°60'0 0.0
2018-Feb-10 21:29N 39°27' W 075°60'0 0.0
2018-Feb-10 20:59N 39°27' W 075°60'0 0.0
2018-Feb-10 20:08N 39°27' W 075°60'0 0.0
2018-Feb-10 19:53N 39°27' W 075°60'0 0.0
2018-Feb-10 19:29N 39°27' W 075°60'0 0.0
2018-Feb-10 18:56N 39°27' W 075°60'0 0.0
2018-Feb-10 18:23N 39°27' W 075°60'0 0.0
2018-Feb-10 17:54N 39°27' W 075°60'0 0.0
2018-Feb-10 14:36N 39°27' W 075°60'0 1.3
2018-Feb-10 14:29N 39°27' W 075°59'0 0.0
2018-Feb-10 13:59N 39°27' W 075°59'0 0.0
2018-Feb-10 13:26N 39°27' W 075°59'0 0.1
2018-Feb-10 13:00N 39°27' W 075°59'0 0.0
2018-Feb-10 12:30N 39°27' W 075°59'0 0.0
2018-Feb-10 11:57N 39°27' W 075°59'0 0.0
2018-Feb-10 11:30N 39°27' W 075°59'0 0.0
2018-Feb-10 10:51N 39°27' W 075°59'0 0.0
2018-Feb-10 10:27N 39°27' W 075°59'0 0.0
2018-Feb-10 09:42N 39°27' W 075°59'0 0.0
2018-Feb-10 09:21N 39°27' W 075°59'0 0.0
2018-Feb-10 08:57N 39°27' W 075°59'0 0.0
2018-Feb-10 08:18N 39°27' W 075°59'0 0.0
2018-Feb-10 08:00N 39°27' W 075°59'0 0.0
2018-Feb-10 07:27N 39°27' W 075°59'0 0.0
2018-Feb-10 06:57N 39°27' W 075°59'0 0.0
2018-Feb-10 06:30N 39°27' W 075°59'0 0.0
2018-Feb-10 06:00N 39°27' W 075°59'0 0.0
2018-Feb-10 05:30N 39°27' W 075°59'3 6.2
2018-Feb-10 05:01N 39°29' W 075°57'4 7.5
2018-Feb-10 04:30N 39°31' W 075°53'4 7.8
2018-Feb-10 04:00N 39°32' W 075°48'4 8.4
2018-Feb-10 03:31N 39°33' W 075°42'4 8.3
2018-Feb-10 03:01N 39°33' W 075°37'3 6.5
2018-Feb-10 02:30N 39°34' W 075°33'4 7.5
2018-Feb-10 01:59N 39°38' W 075°34'4 7.7
2018-Feb-10 01:31N 39°41' W 075°31'3 6.9
2018-Feb-10 01:00N 39°44' W 075°30'3 6.2
2018-Feb-10 00:30N 39°47' W 075°28'3 6.1
2018-Feb-10 00:00N 39°49' W 075°24'1 2.2
2018-Feb-09 23:22N 39°50' W 075°23'1 3.3
2018-Feb-09 22:59N 39°49' W 075°24'211.2
2018-Feb-09 22:46N 39°47' W 075°27'311.4
2018-Feb-09 22:30N 39°45' W 075°29'6 0.3
2018-Feb-09 03:30N 39°49' W 075°24'19 2.8
2018-Feb-08 20:30N 39°33' W 075°38'2 4.4
2018-Feb-08 20:00N 39°33' W 075°41'9 4.4
2018-Feb-08 18:00N 39°32' W 075°52'  
Track history (hours):
 
Tides and Currents Weather Stations Pressure Air Temp Water Temp Dewpoint Dewpoint Depression Visibility Wind Speed Wind Dir Waves Ship Positions

Stephanie Dann

Owner: DANN TOWING CO, TAMPA, FL. More information available from US FCC via Universal Licensing System and Coast Guard Vessel Documentation Center.

Last reported at 2018-Feb-18 17:59 UTC. Time now 2018-Feb-18 18:26 UTC.
Position N 40°40' W 074°01'.

Length 28 m; draft 14 m.

Type: Towing. MMSI: 338871000.

Date/timePositionNaut miles runAvg speedWind from/ knotsBaromVisibWave heightAir tempDewpointWater temp
2018-Feb-18 17:59N 40°40' W 074°01'0 0.0
2018-Feb-18 17:29N 40°40' W 074°01'0 0.0
2018-Feb-18 16:59N 40°40' W 074°01'0 0.0
2018-Feb-18 16:29N 40°40' W 074°01'0 0.0
2018-Feb-18 15:59N 40°40' W 074°01'0 0.0
2018-Feb-18 15:29N 40°40' W 074°01'0 0.0
2018-Feb-18 14:59N 40°40' W 074°01'0 0.0
2018-Feb-18 14:29N 40°40' W 074°01'0 0.0
2018-Feb-18 13:59N 40°40' W 074°01'0 0.0
2018-Feb-18 13:29N 40°40' W 074°01'0 0.0
2018-Feb-18 12:59N 40°40' W 074°01'0 0.0
2018-Feb-18 12:29N 40°40' W 074°01'2 4.2
2018-Feb-18 11:59N 40°39' W 074°03'4 8.1
2018-Feb-18 11:29N 40°38' W 074°09'2 4.4
2018-Feb-18 10:58N 40°38' W 074°12'1 2.7
2018-Feb-18 10:30N 40°37' W 074°12'12 5.0
2018-Feb-18 08:06N 40°29' W 074°01'40 7.5
2018-Feb-18 02:45N 39°49' W 074°04'3 8.8
2018-Feb-18 02:23N 39°45' W 074°04'3 8.6
2018-Feb-18 01:59N 39°42' W 074°06'193 7.8
2018-Feb-17 01:21N 36°60' W 076°18'5 8.2
2018-Feb-17 00:46N 36°55' W 076°20'3 8.9
2018-Feb-17 00:24N 36°52' W 076°20'3 5.1
2018-Feb-16 23:49N 36°50' W 076°17'0 0.4
2018-Feb-16 23:29N 36°50' W 076°17'0 0.0
2018-Feb-16 22:11N 36°50' W 076°17'0 0.0
2018-Feb-16 21:59N 36°50' W 076°17'0 0.0
2018-Feb-16 21:29N 36°50' W 076°17'0 0.0
2018-Feb-16 20:59N 36°50' W 076°17'0 0.0
2018-Feb-16 20:27N 36°50' W 076°17'0 0.0
2018-Feb-16 09:47N 36°50' W 076°17'0 0.0
2018-Feb-16 09:11N 36°50' W 076°17'0 0.0
2018-Feb-16 08:47N 36°50' W 076°17'0 0.0
2018-Feb-16 07:35N 36°50' W 076°17'0 0.0
2018-Feb-16 06:59N 36°50' W 076°17'0 0.0
2018-Feb-16 06:29N 36°50' W 076°17'0 0.0
2018-Feb-16 03:53N 36°50' W 076°17'0 0.0
2018-Feb-16 03:29N 36°50' W 076°17'0 0.0
2018-Feb-16 02:59N 36°50' W 076°17'0 0.0
2018-Feb-16 02:11N 36°50' W 076°17'0 0.0
2018-Feb-16 01:53N 36°50' W 076°17'0 0.0
2018-Feb-16 01:29N 36°50' W 076°17'0 0.0
2018-Feb-16 00:53N 36°50' W 076°17'0 0.0
2018-Feb-15 23:11N 36°50' W 076°17'0 0.0
2018-Feb-15 22:59N 36°50' W 076°17'0 0.0
2018-Feb-15 21:41N 36°50' W 076°17'0 0.0
2018-Feb-15 21:23N 36°50' W 076°17'0 0.0
2018-Feb-15 20:50N 36°50' W 076°17'0 0.0
2018-Feb-15 12:17N 36°50' W 076°17'0 0.0
2018-Feb-15 11:59N 36°50' W 076°17'0 0.0
2018-Feb-15 11:29N 36°50' W 076°17'0 0.0
2018-Feb-15 10:53N 36°50' W 076°17'0 0.0
2018-Feb-15 10:11N 36°50' W 076°17'0 0.0
2018-Feb-15 09:47N 36°50' W 076°17'1 1.9
2018-Feb-15 09:30N 36°51' W 076°18'4 7.8
2018-Feb-15 09:00N 36°47' W 076°18'1 1.6
2018-Feb-15 08:30N 36°46' W 076°18'0 0.0
2018-Feb-15 08:00N 36°46' W 076°18'0 0.0
2018-Feb-15 07:30N 36°46' W 076°18'0 0.0
2018-Feb-15 07:00N 36°46' W 076°18'0 0.0
2018-Feb-15 06:30N 36°46' W 076°18'0 0.0
2018-Feb-15 06:00N 36°46' W 076°18'0 0.0
2018-Feb-15 05:30N 36°46' W 076°18'0 0.0
2018-Feb-15 05:00N 36°46' W 076°18'0 0.0
2018-Feb-15 04:30N 36°46' W 076°18'0 0.0
2018-Feb-15 04:00N 36°46' W 076°18'0 0.0
2018-Feb-15 03:30N 36°46' W 076°18'0 0.0
2018-Feb-15 03:00N 36°46' W 076°18'0 0.0
2018-Feb-15 02:30N 36°46' W 076°18'0 0.0
2018-Feb-15 02:00N 36°46' W 076°18'0 0.0
2018-Feb-15 01:30N 36°46' W 076°18'0 0.0
2018-Feb-15 01:00N 36°46' W 076°18'0 0.0
2018-Feb-15 00:30N 36°46' W 076°18'0 0.0
2018-Feb-15 00:00N 36°46' W 076°18'0 0.0
2018-Feb-14 23:30N 36°46' W 076°18'0 0.0
2018-Feb-14 23:00N 36°46' W 076°18'0 0.0
2018-Feb-14 22:30N 36°46' W 076°18'0 0.0
2018-Feb-14 22:00N 36°46' W 076°18'0 0.0
2018-Feb-14 21:30N 36°46' W 076°18'0 0.0
2018-Feb-14 21:00N 36°46' W 076°18'0 0.0
2018-Feb-14 20:30N 36°46' W 076°18'0 0.0
2018-Feb-14 20:00N 36°46' W 076°18'0 0.0
2018-Feb-14 19:30N 36°46' W 076°18'0 0.1
2018-Feb-14 18:57N 36°46' W 076°18'0 0.0
2018-Feb-14 18:27N 36°46' W 076°18'0 0.1
2018-Feb-14 17:59N 36°46' W 076°18'1 1.4
2018-Feb-14 17:27N 36°47' W 076°18'0 0.6
2018-Feb-14 17:00N 36°47' W 076°18'1 2.3
2018-Feb-14 16:30N 36°48' W 076°18'2 3.3
2018-Feb-14 16:00N 36°49' W 076°17'2 3.4
2018-Feb-14 15:30N 36°51' W 076°18'2 3.7
2018-Feb-14 14:59N 36°52' W 076°20'2 3.7
2018-Feb-14 14:28N 36°54' W 076°20'2 3.6
2018-Feb-14 13:57N 36°56' W 076°20'2 3.6
2018-Feb-14 13:27N 36°58' W 076°20'2 3.6
2018-Feb-14 12:57N 36°59' W 076°19'3 5.2
2018-Feb-14 12:26N 37°01' W 076°16'2 4.2
2018-Feb-14 11:56N 37°01' W 076°13'2 4.2
2018-Feb-14 11:29N 37°01' W 076°11'2 4.3
2018-Feb-14 10:59N 37°03' W 076°10'2 4.6
2018-Feb-14 10:28N 37°06' W 076°10'101 4.4
2018-Feb-13 11:35N 38°45' W 076°28'0 4.8
2018-Feb-13 11:31N 38°46' W 076°28'2 4.9
2018-Feb-13 11:00N 38°48' W 076°27'2 4.6
2018-Feb-13 10:30N 38°50' W 076°26'2 4.6
2018-Feb-13 10:00N 38°53' W 076°26'2 4.5
2018-Feb-13 09:30N 38°55' W 076°25'5 4.4
2018-Feb-13 08:26N 38°59' W 076°23'23 4.7
2018-Feb-13 03:33N 39°20' W 076°11'0 5.5
2018-Feb-13 03:30N 39°20' W 076°11'3 5.2
2018-Feb-13 03:00N 39°22' W 076°08'2 4.9
2018-Feb-13 02:30N 39°23' W 076°05'2 4.5
2018-Feb-13 02:00N 39°24' W 076°03'2 4.2
2018-Feb-13 01:30N 39°26' W 076°01'2 3.9
2018-Feb-13 01:00N 39°27' W 075°59'2 3.6
2018-Feb-13 00:30N 39°28' W 075°58'2 3.3
2018-Feb-13 00:00N 39°29' W 075°56'2 3.0
2018-Feb-12 23:30N 39°30' W 075°55'1 2.7
2018-Feb-12 22:59N 39°31' W 075°53'1 2.5
2018-Feb-12 22:29N 39°32' W 075°52'1 2.1
2018-Feb-12 21:59N 39°32' W 075°50'1 2.1
2018-Feb-12 21:29N 39°32' W 075°49'1 2.3
2018-Feb-12 20:59N 39°32' W 075°48'1 2.8
2018-Feb-12 20:30N 39°32' W 075°46'2 3.2
2018-Feb-12 20:01N 39°33' W 075°44'2 3.7
2018-Feb-12 19:30N 39°33' W 075°41'2 3.9
2018-Feb-12 19:00N 39°33' W 075°39'2 4.4
2018-Feb-12 18:30N 39°33' W 075°36'2 4.5
2018-Feb-12 18:01N 39°34' W 075°33'3 5.3
2018-Feb-12 17:30N 39°36' W 075°34'2 4.8
2018-Feb-12 17:00N 39°39' W 075°34'2 4.7
2018-Feb-12 16:30N 39°40' W 075°32'2 4.0
2018-Feb-12 16:00N 39°42' W 075°31'2 3.5
2018-Feb-12 15:30N 39°44' W 075°29'0 0.3
2018-Feb-12 15:00N 39°44' W 075°29'0 0.0
2018-Feb-12 14:30N 39°44' W 075°29'0 0.1
2018-Feb-12 13:59N 39°44' W 075°29'0 0.0
2018-Feb-12 13:29N 39°44' W 075°29'0 0.0
2018-Feb-12 12:59N 39°44' W 075°29'0 0.0
2018-Feb-12 12:29N 39°44' W 075°29'0 0.0
2018-Feb-12 11:59N 39°44' W 075°29'0 0.0
2018-Feb-12 11:29N 39°44' W 075°29'0 0.0
2018-Feb-12 10:59N 39°44' W 075°29'0 0.0
2018-Feb-12 10:29N 39°44' W 075°29'0 0.0
2018-Feb-12 09:59N 39°44' W 075°29'0 0.0
2018-Feb-12 09:29N 39°44' W 075°29'0 0.0
2018-Feb-12 08:59N 39°44' W 075°29'0 0.0
2018-Feb-12 08:29N 39°44' W 075°29'0 0.0
2018-Feb-12 07:59N 39°44' W 075°29'0 0.0
2018-Feb-12 07:29N 39°44' W 075°29'0 0.0
2018-Feb-12 06:59N 39°44' W 075°29'0 0.0
2018-Feb-12 06:29N 39°44' W 075°29'0 0.0
2018-Feb-12 05:59N 39°44' W 075°29'0 0.0
2018-Feb-12 05:29N 39°44' W 075°29'0 0.0
2018-Feb-12 04:59N 39°44' W 075°29'0 0.0
2018-Feb-12 04:29N 39°44' W 075°29'0 0.0
2018-Feb-12 03:59N 39°44' W 075°29'0 0.0
2018-Feb-12 03:29N 39°44' W 075°29'0 0.0
2018-Feb-12 02:59N 39°44' W 075°29'0 0.0
2018-Feb-12 02:26N 39°44' W 075°29'0 0.0
2018-Feb-12 01:59N 39°44' W 075°29'0 0.0
2018-Feb-12 01:29N 39°44' W 075°29'0 0.0
2018-Feb-12 00:59N 39°44' W 075°29'3 5.4
2018-Feb-12 00:30N 39°46' W 075°28'3 5.8
2018-Feb-12 00:00N 39°48' W 075°26'2 4.5
2018-Feb-11 23:30N 39°47' W 075°28'4 8.2
2018-Feb-11 23:00N 39°43' W 075°30'4 8.0
2018-Feb-11 22:31N 39°40' W 075°32'4 7.2
2018-Feb-11 22:00N 39°36' W 075°34'3 5.6
2018-Feb-11 21:30N 39°33' W 075°35'5 9.5
2018-Feb-11 21:00N 39°33' W 075°41'5 9.7
2018-Feb-11 20:30N 39°32' W 075°48'4 8.6
2018-Feb-11 20:00N 39°31' W 075°53'4 8.1
2018-Feb-11 19:30N 39°29' W 075°57'3 0.5
2018-Feb-11 14:20N 39°27' W 075°60'0 0.0
2018-Feb-11 13:56N 39°27' W 075°60'0 0.0
2018-Feb-11 12:02N 39°27' W 075°60'0 0.0
2018-Feb-11 11:50N 39°27' W 075°60'0 0.0
2018-Feb-11 11:29N 39°27' W 075°60'0 0.0
2018-Feb-11 10:53N 39°27' W 075°60'0 0.0
2018-Feb-11 10:29N 39°27' W 075°60'0 0.0
2018-Feb-11 09:59N 39°27' W 075°60'0 0.0
2018-Feb-11 09:29N 39°27' W 075°60'0 0.0
2018-Feb-11 08:59N 39°27' W 075°60'0 0.0
2018-Feb-11 08:29N 39°27' W 075°60'0 0.0
2018-Feb-11 07:59N 39°27' W 075°60'0 0.0
2018-Feb-11 07:26N 39°27' W 075°60'0 0.0
2018-Feb-11 06:59N 39°27' W 075°60'0 0.0
2018-Feb-11 00:50N 39°27' W 075°60'0 0.0
2018-Feb-11 00:29N 39°27' W 075°60'0 0.0
2018-Feb-10 23:50N 39°27' W 075°60'0 0.0
2018-Feb-10 23:29N 39°27' W 075°60'0 0.0
2018-Feb-10 22:59N 39°27' W 075°60'0 0.0
2018-Feb-10 22:26N 39°27' W 075°60'0 0.0
2018-Feb-10 21:41N 39°27' W 075°60'0 0.0
2018-Feb-10 21:29N 39°27' W 075°60'0 0.0
2018-Feb-10 20:59N 39°27' W 075°60'0 0.0
2018-Feb-10 20:08N 39°27' W 075°60'0 0.0
2018-Feb-10 19:53N 39°27' W 075°60'0 0.0
2018-Feb-10 19:29N 39°27' W 075°60'0 0.0
2018-Feb-10 18:56N 39°27' W 075°60'0 0.0
2018-Feb-10 18:23N 39°27' W 075°60'0 0.0
2018-Feb-10 17:54N 39°27' W 075°60'0 0.0
2018-Feb-10 14:36N 39°27' W 075°60'0 1.3
2018-Feb-10 14:29N 39°27' W 075°59'0 0.0
2018-Feb-10 13:59N 39°27' W 075°59'0 0.0
2018-Feb-10 13:26N 39°27' W 075°59'0 0.1
2018-Feb-10 13:00N 39°27' W 075°59'0 0.0
2018-Feb-10 12:30N 39°27' W 075°59'0 0.0
2018-Feb-10 11:57N 39°27' W 075°59'0 0.0
2018-Feb-10 11:30N 39°27' W 075°59'0 0.0
2018-Feb-10 10:51N 39°27' W 075°59'0 0.0
2018-Feb-10 10:27N 39°27' W 075°59'0 0.0
2018-Feb-10 09:42N 39°27' W 075°59'0 0.0
2018-Feb-10 09:21N 39°27' W 075°59'0 0.0
2018-Feb-10 08:57N 39°27' W 075°59'0 0.0
2018-Feb-10 08:18N 39°27' W 075°59'0 0.0
2018-Feb-10 08:00N 39°27' W 075°59'0 0.0
2018-Feb-10 07:27N 39°27' W 075°59'0 0.0
2018-Feb-10 06:57N 39°27' W 075°59'0 0.0
2018-Feb-10 06:30N 39°27' W 075°59'0 0.0
2018-Feb-10 06:00N 39°27' W 075°59'0 0.0
2018-Feb-10 05:30N 39°27' W 075°59'3 6.2
2018-Feb-10 05:01N 39°29' W 075°57'4 7.5
2018-Feb-10 04:30N 39°31' W 075°53'4 7.8
2018-Feb-10 04:00N 39°32' W 075°48'4 8.4
2018-Feb-10 03:31N 39°33' W 075°42'4 8.3
2018-Feb-10 03:01N 39°33' W 075°37'3 6.5
2018-Feb-10 02:30N 39°34' W 075°33'4 7.5
2018-Feb-10 01:59N 39°38' W 075°34'4 7.7
2018-Feb-10 01:31N 39°41' W 075°31'3 6.9
2018-Feb-10 01:00N 39°44' W 075°30'3 6.2
2018-Feb-10 00:30N 39°47' W 075°28'3 6.1
2018-Feb-10 00:00N 39°49' W 075°24'1 2.2
2018-Feb-09 23:22N 39°50' W 075°23'1 3.3
2018-Feb-09 22:59N 39°49' W 075°24'211.2
2018-Feb-09 22:46N 39°47' W 075°27'311.4
2018-Feb-09 22:30N 39°45' W 075°29'6 0.3
2018-Feb-09 03:30N 39°49' W 075°24'19 2.8
2018-Feb-08 20:30N 39°33' W 075°38'2 4.4
2018-Feb-08 20:00N 39°33' W 075°41'9 4.4
2018-Feb-08 18:00N 39°32' W 075°52'  

Dump ship's entire track history